Time;durP1;ratioP1;P1;durP2;ratioP2;P2;SDS_P1;SDS_P2;PMS_P1;PMS_P2;Temp;Humidity;BMP_temperature;BMP_pressure;BME280_temperature;BME280_humidity;BME280_pressure;Samples;Min_cycle;Max_cycle;Signal;HPM_P1;HPM_P2
2023/04/29 13:10:45;;;;;;;4.05;2.47;;;;;;;17.97;54.99;102175.47;4973039;28;116597;-30
2023/04/29 13:13:10;;;;;;;4.93;2.33;;;;;;;17.86;53.48;102174.50;4976613;28;97315;-31
2023/04/29 13:15:38;;;;;;;4.38;2.67;;;;;;;17.76;53.42;102176.97;4976617;28;96692;-31
2023/04/29 13:18:03;;;;;;;5.07;2.78;;;;;;;17.66;55.25;102179.44;4975216;28;96902;-31
2023/04/29 13:20:29;;;;;;;4.32;2.45;;;;;;;17.56;55.17;102181.97;4974924;28;99042;-31
2023/04/29 13:22:54;;;;;;;5.32;2.88;;;;;;;17.41;53.86;102185.78;4976320;28;99235;-32
2023/04/29 13:25:38;;;;;;;6.50;2.80;;;;;;;17.48;55.29;102188.97;4975007;28;96770;-31
2023/04/29 13:28:06;;;;;;;4.63;2.38;;;;;;;17.71;54.43;102180.03;4975875;28;110094;-30
2023/04/29 13:30:32;;;;;;;4.35;2.78;;;;;;;17.60;55.95;102177.16;4973991;28;100822;-30
2023/04/29 13:33:01;;;;;;;7.20;2.90;;;;;;;17.49;55.24;102187.97;4975790;28;99312;-31
2023/04/29 13:35:26;;;;;;;5.38;2.65;;;;;;;17.61;55.70;102178.91;4974816;28;96621;-32
2023/04/29 13:37:51;;;;;;;5.90;3.00;;;;;;;17.88;56.09;102186.22;4976354;28;96768;-30
2023/04/29 13:40:17;;;;;;;4.75;2.83;;;;;;;18.00;54.99;102185.34;4975544;28;109737;-33
2023/04/29 13:42:42;;;;;;;8.63;3.13;;;;;;;18.12;54.96;102187.19;4976003;28;97760;-30
2023/04/29 13:45:07;;;;;;;4.82;2.55;;;;;;;18.17;54.48;102185.00;4976512;28;96936;-30
2023/04/29 13:47:33;;;;;;;4.60;3.13;;;;;;;18.09;54.57;102190.19;4976609;28;96928;-30
2023/04/29 13:49:58;;;;;;;6.15;3.08;;;;;;;17.93;54.90;102197.75;4975707;28;99237;-31
2023/04/29 13:52:23;;;;;;;6.35;3.47;;;;;;;17.75;54.90;102186.16;4975286;28;108039;-31
2023/04/29 13:54:49;;;;;;;8.77;2.88;;;;;;;17.58;55.38;102190.97;4975211;28;96686;-30
2023/04/29 13:57:15;;;;;;;6.60;3.30;;;;;;;17.65;55.25;102191.41;4975789;28;96580;-32
2023/04/29 13:59:40;;;;;;;4.63;2.67;;;;;;;17.83;55.79;102201.13;4975683;28;98013;-32
2023/04/29 14:02:05;;;;;;;8.05;2.65;;;;;;;17.99;55.11;102195.41;4975450;28;99064;-31
2023/04/29 14:04:31;;;;;;;4.28;2.50;;;;;;;18.13;53.98;102199.91;4975966;28;96655;-30
2023/04/29 14:06:56;;;;;;;5.78;3.10;;;;;;;18.18;54.73;102192.22;4975680;28;96840;-31
2023/04/29 14:09:22;;;;;;;4.60;2.63;;;;;;;18.29;55.09;102201.56;4975157;28;98031;-31
2023/04/29 14:11:48;;;;;;;7.00;2.72;;;;;;;18.26;54.20;102202.66;4973917;28;101011;-30
2023/04/29 14:14:15;;;;;;;4.80;2.72;;;;;;;18.22;54.60;102201.13;4974505;28;96681;-30
2023/04/29 14:16:40;;;;;;;5.72;3.03;;;;;;;18.21;54.68;102208.47;4973710;28;96869;-31
2023/04/29 14:19:06;;;;;;;7.10;2.50;;;;;;;18.26;54.35;102208.16;4974892;28;101430;-32
2023/04/29 14:21:32;;;;;;;6.65;3.05;;;;;;;18.30;54.33;102211.53;4975057;28;99077;-30
2023/04/29 14:24:02;;;;;;;4.72;2.58;;;;;;;18.33;54.43;102203.06;4975922;28;96529;-32
2023/04/29 14:26:27;;;;;;;4.22;2.67;;;;;;;18.36;54.20;102217.47;4975544;28;96960;-31
2023/04/29 14:28:56;;;;;;;6.03;2.95;;;;;;;18.39;54.74;102205.38;4973847;28;101142;-31
2023/04/29 15:19:53;;;;;;;3.08;1.92;;;;;;;17.54;54.94;102246.97;4944965;28;96819;-29
2023/04/29 15:22:18;;;;;;;4.95;2.42;;;;;;;17.42;54.47;102239.56;4972897;28;101041;-32
2023/04/29 15:24:43;;;;;;;6.65;2.25;;;;;;;17.39;54.11;102239.78;4974210;28;109685;-31
2023/04/29 15:27:08;;;;;;;4.28;2.47;;;;;;;17.39;53.99;102237.94;4974845;28;96591;-31
2023/04/29 15:29:36;;;;;;;6.85;2.42;;;;;;;17.37;54.06;102234.41;4976280;28;96835;-30
2023/04/29 15:32:01;;;;;;;6.10;2.50;;;;;;;17.31;54.40;102240.31;4977790;28;99341;-31
2023/04/29 15:34:26;;;;;;;4.43;2.45;;;;;;;17.25;54.34;102237.97;4977678;28;99079;-31
2023/04/29 15:36:52;;;;;;;7.55;2.33;;;;;;;17.27;54.58;102244.25;4978378;28;96727;-31
2023/04/29 15:39:17;;;;;;;29.65;4.93;;;;;;;17.22;54.01;102249.16;4978659;28;96770;-32
2023/04/29 15:41:42;;;;;;;5.88;2.80;;;;;;;17.11;54.36;102255.38;4977639;28;98864;-31
2023/04/29 15:44:08;;;;;;;4.70;2.47;;;;;;;17.09;54.32;102250.94;4977423;28;107822;-32
2023/04/29 15:46:33;;;;;;;5.90;2.42;;;;;;;17.03;54.79;102241.28;4977225;28;101880;-30
2023/04/29 15:48:59;;;;;;;5.72;2.67;;;;;;;16.86;54.38;102242.41;4977931;28;96850;-30
2023/04/29 15:51:24;;;;;;;5.38;2.40;;;;;;;16.88;54.99;102253.28;4976396;28;101370;-32
2023/04/29 15:53:50;;;;;;;3.40;2.25;;;;;;;16.84;54.22;102249.84;4977705;28;97433;-30
2023/04/29 15:56:16;;;;;;;5.40;2.45;;;;;;;16.79;54.54;102243.78;4977647;28;98264;-31
2023/04/29 15:58:41;;;;;;;5.75;2.25;;;;;;;16.80;54.33;102256.47;4976486;28;96951;-31
2023/04/29 16:01:07;;;;;;;4.30;1.98;;;;;;;16.82;54.83;102260.00;4977554;28;98915;-31
2023/04/29 16:03:32;;;;;;;5.40;2.35;;;;;;;16.75;54.03;102262.22;4977980;28;97744;-31
2023/04/29 16:05:57;;;;;;;4.57;2.58;;;;;;;16.68;55.30;102257.25;4977961;28;96404;-33
2023/04/29 16:08:23;;;;;;;6.53;2.50;;;;;;;16.60;54.60;102265.97;4978067;28;97177;-31
2023/04/29 16:10:48;;;;;;;4.05;2.00;;;;;;;16.65;54.98;102257.47;4977383;28;97394;-33
2023/04/29 16:13:14;;;;;;;4.20;2.25;;;;;;;16.67;54.95;102274.66;4977426;28;97799;-32
2023/04/29 16:15:39;;;;;;;2.92;1.95;;;;;;;16.58;55.41;102264.31;4977802;28;96541;-31
2023/04/29 16:18:05;;;;;;;7.28;2.20;;;;;;;16.58;55.06;102278.00;4977754;28;96705;-30
2023/04/29 16:20:31;;;;;;;4.68;1.98;;;;;;;16.50;54.81;102270.28;4976528;28;99348;-32
2023/04/29 16:22:56;;;;;;;5.68;2.25;;;;;;;16.48;55.36;102264.03;4975758;28;100998;-31
2023/04/29 16:25:21;;;;;;;4.68;2.00;;;;;;;16.46;53.95;102277.78;4977382;28;96649;-31
2023/04/29 16:27:47;;;;;;;2.83;1.65;;;;;;;16.46;55.24;102272.31;4977602;28;96877;-31
2023/04/29 16:30:12;;;;;;;2.42;1.70;;;;;;;16.41;55.42;102273.59;4975645;28;99376;-30
2023/04/29 16:32:40;;;;;;;2.65;1.75;;;;;;;16.36;54.81;102260.22;4976949;28;99135;-31
2023/04/29 16:35:05;;;;;;;4.15;1.80;;;;;;;16.40;55.66;102272.72;4975492;28;96574;-32
2023/04/29 16:37:31;;;;;;;3.83;2.28;;;;;;;16.38;55.45;102271.06;4975817;28;96933;-31
2023/04/29 16:39:56;;;;;;;5.93;1.85;;;;;;;16.28;55.50;102274.38;4976637;28;97934;-31
2023/04/29 16:42:22;;;;;;;3.28;1.55;;;;;;;16.28;55.56;102270.72;4975607;28;100844;-31
2023/04/29 16:44:47;;;;;;;4.45;1.85;;;;;;;16.23;55.27;102279.25;4977088;28;98045;-31
2023/04/29 16:47:13;;;;;;;6.38;2.13;;;;;;;16.23;55.48;102276.53;4977393;28;96780;-31
2023/04/29 16:49:39;;;;;;;3.35;1.60;;;;;;;16.19;54.69;102276.81;4975344;28;100722;-31
2023/04/29 16:52:05;;;;;;;1.88;1.27;;;;;;;16.17;55.03;102278.75;4977187;28;97761;-33
2023/04/29 16:54:30;;;;;;;5.65;1.75;;;;;;;16.14;55.12;102272.50;4976567;28;96597;-32
2023/04/29 16:56:56;;;;;;;2.33;1.27;;;;;;;16.12;54.78;102273.56;4976788;28;96854;-31
2023/04/29 16:59:21;;;;;;;3.67;1.52;;;;;;;16.08;54.52;102270.13;4976295;28;101036;-31
2023/04/29 17:01:46;;;;;;;4.93;1.65;;;;;;;15.97;54.75;102266.31;4976458;28;99124;-31
2023/04/29 17:04:12;;;;;;;4.70;1.80;;;;;;;15.93;54.46;102260.16;4977112;28;96778;-32
2023/04/29 17:06:39;;;;;;;3.38;1.63;;;;;;;15.95;53.93;102268.28;4976786;28;96850;-31
2023/04/29 17:09:05;;;;;;;4.68;1.75;;;;;;;15.90;54.57;102265.81;4975160;28;100817;-32
2023/04/29 17:11:30;;;;;;;1.83;1.35;;;;;;;15.88;53.93;102273.22;4976622;28;97692;-31
2023/04/29 17:13:55;;;;;;;2.85;1.67;;;;;;;15.78;53.83;102267.44;4976574;28;96631;-31
2023/04/29 17:16:21;;;;;;;1.92;1.35;;;;;;;15.67;53.52;102278.97;4977100;28;96785;-32
2023/04/29 17:18:46;;;;;;;2.50;1.38;;;;;;;15.59;54.65;102275.84;4975964;28;99425;-31
2023/04/29 17:21:11;;;;;;;5.38;1.42;;;;;;;15.45;53.20;102276.66;4975593;28;97801;-31
2023/04/29 17:23:37;;;;;;;2.28;1.40;;;;;;;15.37;54.31;102269.88;4975987;28;96545;-31
2023/04/29 17:26:03;;;;;;;3.55;1.15;;;;;;;15.36;53.89;102277.19;4976634;28;96813;-31
2023/04/29 17:28:29;;;;;;;1.98;1.05;;;;;;;15.31;54.13;102273.00;4974902;28;101172;-31
2023/04/29 17:30:58;;;;;;;3.42;1.35;;;;;;;15.20;54.31;102269.03;4975793;28;99240;-31
2023/04/29 17:33:32;;;;;;;4.05;0.93;;;;;;;15.15;54.26;102271.13;4976232;28;96636;-31
2023/04/29 17:36:02;;;;;;;1.42;1.00;;;;;;;15.10;53.93;102275.13;4974958;28;96730;-30
2023/04/29 17:38:28;;;;;;;2.90;1.38;;;;;;;15.12;54.56;102278.63;4976167;28;100191;-32
2023/04/29 17:40:54;;;;;;;3.58;1.15;;;;;;;15.08;53.86;102288.84;4976374;28;97757;-31
2023/04/29 17:43:20;;;;;;;6.68;1.50;;;;;;;14.94;54.22;102280.56;4974928;28;96746;-33
2023/04/29 17:45:45;;;;;;;2.83;1.15;;;;;;;14.89;53.44;102283.56;4974648;28;96933;-31
2023/04/29 17:48:11;;;;;;;3.08;1.00;;;;;;;14.89;54.70;102282.69;4975690;28;100870;-31
2023/04/29 17:50:37;;;;;;;2.40;1.27;;;;;;;14.74;53.84;102289.88;4975848;28;96820;-31
2023/04/29 17:53:02;;;;;;;3.33;0.85;;;;;;;14.74;54.00;102288.03;4973797;28;96783;-31
2023/04/29 17:55:27;;;;;;;2.67;0.70;;;;;;;14.67;53.46;102283.88;4974669;28;96947;-31
2023/04/29 17:57:55;;;;;;;2.17;1.20;;;;;;;14.52;53.34;102282.88;4975770;28;99112;-31
2023/04/29 18:00:20;;;;;;;1.85;1.15;;;;;;;14.42;52.54;102293.41;4975508;28;99496;-31
2023/04/29 18:02:45;;;;;;;2.03;0.93;;;;;;;14.39;53.79;102295.41;4975759;28;96517;-31
2023/04/29 18:05:11;;;;;;;2.10;1.02;;;;;;;14.35;54.67;102291.97;4976427;28;96839;-31
2023/04/29 18:07:36;;;;;;;3.72;1.10;;;;;;;14.28;53.84;102293.25;4975526;28;99091;-31
2023/04/29 18:10:02;;;;;;;1.40;0.88;;;;;;;14.25;54.28;102293.41;4975800;28;97944;-30
2023/04/29 18:12:27;;;;;;;0.93;0.80;;;;;;;14.17;54.58;102293.81;4974072;28;96752;-31
2023/04/29 18:14:53;;;;;;;1.33;0.73;;;;;;;14.12;53.88;102295.06;4975756;28;96803;-32
2023/04/29 18:17:18;;;;;;;0.98;0.70;;;;;;;14.02;54.12;102303.72;4975192;28;100631;-31
2023/04/29 18:19:46;;;;;;;1.00;0.60;;;;;;;13.96;53.83;102298.56;4975611;28;97733;-32
2023/04/29 18:22:11;;;;;;;2.33;0.77;;;;;;;13.86;53.05;102297.28;4974016;28;96784;-31
2023/04/29 18:24:37;;;;;;;1.73;1.05;;;;;;;13.78;52.61;102296.81;4975621;28;96844;-30
2023/04/29 18:27:02;;;;;;;0.77;0.60;;;;;;;13.70;52.06;102299.03;4975219;28;100007;-31
2023/04/29 18:29:27;;;;;;;1.38;0.80;;;;;;;13.60;53.54;102313.13;4975025;28;97815;-31
2023/04/29 18:31:53;;;;;;;2.45;0.80;;;;;;;13.47;51.58;102309.28;4975238;28;96882;-32
2023/04/29 18:34:19;;;;;;;1.83;0.93;;;;;;;13.37;52.58;102307.97;4974308;28;96738;-30
2023/04/29 18:36:44;;;;;;;0.57;0.52;;;;;;;13.35;53.23;102310.78;4974792;28;98037;-31
2023/04/29 18:39:09;;;;;;;1.15;0.60;;;;;;;13.35;53.04;102316.22;4974950;28;102669;-31
2023/04/29 18:41:35;;;;;;;1.02;0.70;;;;;;;13.36;53.63;102314.38;4975315;28;96692;-31
2023/04/29 18:44:01;;;;;;;2.20;0.88;;;;;;;13.37;53.78;102318.84;4977872;28;96828;-31
2023/04/29 18:46:29;;;;;;;1.35;0.80;;;;;;;13.30;52.66;102317.38;4977231;28;98908;-31
2023/04/29 18:48:54;;;;;;;1.25;0.68;;;;;;;13.16;53.53;102313.50;4974762;28;99472;-31
2023/04/29 18:51:21;;;;;;;2.53;0.88;;;;;;;13.16;53.65;102316.22;4975265;28;97921;-31
2023/04/29 18:53:47;;;;;;;1.48;0.93;;;;;;;13.10;53.17;102313.78;4975578;28;96912;-30
2023/04/29 18:56:12;;;;;;;1.45;0.82;;;;;;;13.11;54.02;102320.13;4973707;28;99324;-31
2023/04/29 18:58:38;;;;;;;1.42;0.65;;;;;;;13.02;53.95;102318.72;4970648;28;101110;-31
2023/04/29 19:01:03;;;;;;;1.58;0.52;;;;;;;13.04;54.37;102324.97;4972390;28;96792;-31
2023/04/29 19:03:29;;;;;;;3.17;1.00;;;;;;;13.03;54.59;102322.31;4972515;28;96858;-31
2023/04/29 19:05:54;;;;;;;1.13;0.77;;;;;;;12.95;54.46;102329.00;4972715;28;97801;-31
2023/04/29 19:08:19;;;;;;;0.82;0.65;;;;;;;12.92;54.77;102331.00;4972585;28;98764;-32
2023/04/29 19:10:45;;;;;;;0.77;0.50;;;;;;;12.89;55.00;102328.41;4972887;28;96949;-32
2023/04/29 19:13:11;;;;;;;2.08;0.80;;;;;;;12.85;55.19;102334.97;4974694;28;97297;-31
2023/04/29 19:15:36;;;;;;;1.95;0.80;;;;;;;12.84;55.03;102341.34;4974657;28;98809;-32
2023/04/29 19:18:03;;;;;;;1.60;0.77;;;;;;;12.80;55.06;102343.34;4975053;28;97288;-30
2023/04/29 19:20:29;;;;;;;2.38;0.95;;;;;;;12.77;54.89;102351.63;4973135;28;96599;-31
2023/04/29 19:22:55;;;;;;;1.23;0.90;;;;;;;12.74;55.37;102354.50;4974904;28;96701;-32
2023/04/29 19:25:21;;;;;;;1.50;0.93;;;;;;;12.67;55.11;102353.88;4974048;28;99292;-31
2023/04/29 19:27:47;;;;;;;1.25;1.00;;;;;;;12.67;55.48;102361.16;4974487;28;97753;-31
2023/04/29 19:30:14;;;;;;;1.77;1.05;;;;;;;12.66;55.39;102368.44;4974538;28;96642;-32
2023/04/29 19:32:39;;;;;;;2.97;0.85;;;;;;;12.65;54.93;102374.81;4973525;28;96913;-31
2023/04/29 19:35:05;;;;;;;1.60;0.68;;;;;;;12.60;56.03;102370.56;4974397;28;99296;-30
2023/04/29 19:37:30;;;;;;;1.58;1.00;;;;;;;12.53;55.88;102364.50;4974540;28;97941;-30
2023/04/29 19:39:56;;;;;;;1.38;1.08;;;;;;;12.51;56.36;102371.84;4974939;28;96523;-31
2023/04/29 19:42:21;;;;;;;3.65;1.20;;;;;;;12.42;56.40;102369.53;4974700;28;96810;-31
2023/04/29 19:44:46;;;;;;;3.03;1.25;;;;;;;12.40;56.85;102372.34;4974368;28;99196;-31
2023/04/29 19:47:12;;;;;;;2.58;1.20;;;;;;;12.33;57.00;102374.44;4974378;28;97307;-31
2023/04/29 19:49:37;;;;;;;2.55;1.30;;;;;;;12.26;57.15;102374.78;4974359;28;96588;-30
2023/04/29 19:52:04;;;;;;;1.80;1.35;;;;;;;12.28;57.58;102381.94;4974427;28;96881;-32
2023/04/29 19:54:29;;;;;;;1.58;1.23;;;;;;;12.24;57.47;102371.25;4972795;28;99576;-31
2023/04/29 19:56:55;;;;;;;3.13;1.30;;;;;;;12.24;57.53;102379.41;4973949;28;97823;-31
2023/04/29 19:59:20;;;;;;;1.77;1.02;;;;;;;12.20;57.90;102385.91;4974530;28;96559;-31
2023/04/29 20:01:45;;;;;;;2.58;1.25;;;;;;;12.17;57.91;102389.66;4974573;28;96815;-31
2023/04/29 20:04:11;;;;;;;2.63;1.10;;;;;;;12.16;57.98;102390.63;4974189;28;97999;-32
2023/04/29 20:06:36;;;;;;;5.95;1.38;;;;;;;12.14;58.26;102389.78;4974602;28;97795;-31
2023/04/29 20:09:03;;;;;;;2.33;1.42;;;;;;;12.09;58.53;102392.72;4974201;28;96594;-32
2023/04/29 20:11:28;;;;;;;2.50;1.48;;;;;;;12.05;58.61;102385.63;4972980;28;96904;-31
2023/04/29 20:13:53;;;;;;;3.08;1.38;;;;;;;12.09;58.79;102381.84;4973449;28;99312;-31
2023/04/29 20:16:19;;;;;;;3.22;1.48;;;;;;;12.08;58.74;102392.75;4976325;28;97776;-34
2023/04/29 20:18:44;;;;;;;2.47;1.35;;;;;;;12.00;58.67;102384.94;4977601;28;96454;-31
2023/04/29 20:21:10;;;;;;;1.25;1.05;;;;;;;11.96;59.17;102380.59;4977212;28;96836;-31
2023/04/29 20:23:36;;;;;;;2.05;1.15;;;;;;;12.00;59.42;102394.94;4977413;28;98031;-32
2023/04/29 20:26:02;;;;;;;1.88;1.35;;;;;;;11.94;59.31;102395.19;4977151;28;97918;-30
2023/04/29 20:28:28;;;;;;;2.58;1.42;;;;;;;11.91;59.41;102396.19;4976197;28;96672;-32
2023/04/29 20:30:53;;;;;;;2.95;1.63;;;;;;;11.89;59.68;102396.28;4977628;28;96866;-32
2023/04/29 20:33:18;;;;;;;2.78;1.38;;;;;;;11.85;60.08;102391.91;4977190;28;99901;-31
2023/04/29 20:35:44;;;;;;;4.20;1.63;;;;;;;11.81;60.21;102408.38;4977338;28;97202;-31
2023/04/29 20:38:09;;;;;;;2.85;1.30;;;;;;;11.80;60.23;102410.22;4976732;28;96595;-31
2023/04/29 20:40:35;;;;;;;2.78;1.63;;;;;;;11.79;60.27;102410.25;4977304;28;96832;-31
2023/04/29 20:43:01;;;;;;;2.35;1.45;;;;;;;11.73;60.57;102399.66;4975541;28;101106;-30
2023/04/29 20:45:27;;;;;;;3.42;1.42;;;;;;;11.72;60.68;102420.50;4977157;28;97255;-31
2023/04/29 20:47:53;;;;;;;2.70;1.40;;;;;;;11.68;60.94;102418.88;4977363;28;96543;-31
2023/04/29 20:50:18;;;;;;;3.42;1.63;;;;;;;11.59;61.16;102421.94;4975826;28;97008;-30
2023/04/29 20:52:46;;;;;;;3.80;1.45;;;;;;;11.56;61.60;102414.81;4976898;28;97833;-32
2023/04/29 20:55:12;;;;;;;3.80;1.70;;;;;;;11.50;61.88;102414.19;4975314;28;101017;-31
2023/04/29 20:57:38;;;;;;;3.15;1.52;;;;;;;11.51;61.32;102418.66;4976811;28;96608;-31
2023/04/29 21:00:04;;;;;;;4.32;1.63;;;;;;;11.50;62.30;102419.59;4975700;28;96723;-31
2023/04/29 21:02:29;;;;;;;4.57;1.83;;;;;;;11.47;62.00;102418.78;4974798;28;101119;-32
2023/04/29 21:04:55;;;;;;;2.80;1.48;;;;;;;11.47;62.77;102432.34;4976532;28;99109;-31
2023/04/29 21:07:20;;;;;;;5.38;1.60;;;;;;;11.44;63.04;102427.06;4977124;28;96525;-31
2023/04/29 21:09:47;;;;;;;5.22;1.63;;;;;;;11.42;62.66;102430.78;4977108;28;96873;-31
2023/04/29 21:12:13;;;;;;;3.30;1.83;;;;;;;11.36;62.47;102431.88;4976300;28;99504;-31
2023/04/29 21:14:39;;;;;;;6.18;2.22;;;;;;;11.34;62.91;102431.06;4974984;28;99336;-30
2023/04/29 21:17:04;;;;;;;3.72;1.92;;;;;;;11.26;62.98;102431.34;4976691;28;96578;-31
2023/04/29 21:19:30;;;;;;;3.30;2.20;;;;;;;11.25;63.08;102435.03;4977016;28;96829;-32
2023/04/29 21:21:55;;;;;;;2.50;1.50;;;;;;;11.24;63.24;102432.38;4976023;28;97889;-31
2023/04/29 21:24:21;;;;;;;3.70;1.92;;;;;;;11.22;63.67;102432.41;4976115;28;99218;-31
2023/04/29 21:26:46;;;;;;;2.88;1.88;;;;;;;11.17;63.77;102425.41;4976124;28;96555;-31
2023/04/29 21:29:11;;;;;;;3.20;1.83;;;;;;;11.16;64.11;102432.66;4976290;28;96972;-31
2023/04/29 21:31:37;;;;;;;2.92;1.77;;;;;;;11.12;64.36;102427.41;4976263;28;97925;-31
2023/04/29 21:34:02;;;;;;;3.03;1.33;;;;;;;11.09;64.62;102431.13;4976281;28;97380;-31
2023/04/29 21:36:27;;;;;;;5.65;2.47;;;;;;;11.04;64.43;102434.03;4976172;28;98242;-30
2023/04/29 21:38:53;;;;;;;4.57;2.08;;;;;;;11.04;64.32;102438.56;4976363;28;96777;-33
2023/04/29 21:41:27;;;;;;;2.95;1.85;;;;;;;11.01;65.41;102433.22;4975823;28;99512;-31
2023/04/29 21:43:55;;;;;;;3.30;1.80;;;;;;;10.98;65.32;102438.78;4974977;28;100724;-31
2023/04/29 21:46:20;;;;;;;3.25;2.08;;;;;;;10.93;65.21;102441.66;4974849;28;97520;-31
2023/04/29 21:48:46;;;;;;;3.05;1.92;;;;;;;10.88;65.61;102438.25;4976111;28;96878;-31
2023/04/29 21:51:11;;;;;;;3.35;2.05;;;;;;;10.83;65.72;102442.97;4975306;28;99480;-31
2023/04/29 21:53:37;;;;;;;3.08;2.00;;;;;;;10.80;65.91;102445.78;4974564;28;97784;-32
2023/04/29 21:56:04;;;;;;;3.97;2.38;;;;;;;10.77;66.20;102445.88;4975658;28;96508;-30
2023/04/29 21:58:29;;;;;;;3.13;1.65;;;;;;;10.70;66.41;102450.66;4974671;28;96832;-32
2023/04/29 22:01:00;;;;;;;3.75;2.05;;;;;;;10.65;66.82;102443.63;4975844;28;97401;-32
2023/04/29 22:03:26;;;;;;;4.10;2.38;;;;;;;10.63;66.84;102444.59;4974248;28;101185;-30
2023/04/29 22:05:51;;;;;;;4.05;2.22;;;;;;;10.61;66.74;102441.03;4975955;28;96535;-32
2023/04/29 22:08:17;;;;;;;4.00;2.00;;;;;;;10.58;66.81;102437.53;4976252;28;96812;-31
2023/04/29 22:10:42;;;;;;;4.05;2.40;;;;;;;10.56;67.27;102443.03;4975355;28;99235;-30
2023/04/29 22:13:08;;;;;;;5.22;2.30;;;;;;;10.55;67.01;102438.53;4975546;28;98811;-32
2023/04/29 22:15:33;;;;;;;4.22;2.33;;;;;;;10.54;66.25;102439.50;4975515;28;96882;-32
2023/04/29 22:17:59;;;;;;;3.28;1.60;;;;;;;10.50;66.95;102436.94;4975873;28;96795;-31
2023/04/29 22:20:24;;;;;;;3.45;2.15;;;;;;;10.47;67.67;102437.94;4975027;28;97969;-31
2023/04/29 22:22:51;;;;;;;2.92;1.63;;;;;;;10.48;67.18;102444.22;4975218;28;99307;-31
2023/04/29 22:25:18;;;;;;;6.93;2.15;;;;;;;10.44;67.91;102447.97;4974326;28;96598;-31
2023/04/29 22:27:44;;;;;;;5.65;2.22;;;;;;;10.43;68.03;102452.53;4974349;28;96895;-31
2023/04/29 22:30:09;;;;;;;5.15;2.08;;;;;;;10.40;67.52;102447.22;4973600;28;100368;-31
2023/04/29 22:32:35;;;;;;;3.97;1.80;;;;;;;10.32;67.79;102449.28;4975671;28;97933;-31
2023/04/29 22:35:00;;;;;;;4.13;1.85;;;;;;;10.30;67.79;102445.78;4975736;28;96817;-31
2023/04/29 22:37:25;;;;;;;3.40;1.90;;;;;;;10.23;68.19;102453.19;4975320;28;96957;-31
2023/04/29 22:39:51;;;;;;;3.25;1.83;;;;;;;10.20;67.88;102454.19;4974218;28;99446;-31
2023/04/29 22:42:17;;;;;;;2.30;1.67;;;;;;;10.18;67.83;102449.75;4975201;28;97367;-31
2023/04/29 22:44:42;;;;;;;2.75;1.60;;;;;;;10.23;67.95;102457.72;4975291;28;96703;-30
2023/04/29 22:47:07;;;;;;;3.45;1.95;;;;;;;10.18;68.36;102450.63;4975470;28;96856;-30
